Time;durP1;ratioP1;P1;durP2;ratioP2;P2;SDS_P1;SDS_P2;PMS_P1;PMS_P2;Temp;Humidity;BMP_temperature;BMP_pressure;BME280_temperature;BME280_humidity;BME280_pressure;Samples;Min_cycle;Max_cycle;Signal;HPM_P1;HPM_P2
2023/04/07 00:03:05;;;;;;;5.57;1.85;;;;;;;18.63;38.54;101425.44;16115540;19;130231;-49
2023/04/07 00:08:28;;;;;;;;;;;;;;;18.56;38.21;101428.31;16121051;19;130402;-50
2023/04/07 00:13:49;;;;;;;8.80;1.70;;;;;;;18.57;38.42;101412.53;16122131;19;130722;-48
2023/04/07 00:19:12;;;;;;;7.03;1.50;;;;;;;18.54;38.41;101429.63;16118635;19;131338;-48
2023/04/07 00:24:34;;;;;;;7.95;1.80;;;;;;;18.52;38.52;101434.56;16118621;19;131472;-46
2023/04/07 00:29:56;;;;;;;4.95;1.80;;;;;;;18.50;38.15;101428.38;16119201;19;129926;-47
2023/04/07 00:35:18;;;;;;;2.95;1.30;;;;;;;18.49;38.10;101435.00;16119539;19;130192;-48
2023/04/07 00:40:40;;;;;;;4.18;1.40;;;;;;;18.46;38.48;101431.63;16119458;19;130535;-44
2023/04/07 00:46:02;;;;;;;4.45;1.50;;;;;;;18.44;38.32;101422.72;16119702;19;133252;-48
2023/04/07 00:51:25;;;;;;;4.97;1.50;;;;;;;18.41;38.14;101417.63;16119580;19;131225;-44
2023/04/07 00:56:47;;;;;;;5.85;1.63;;;;;;;18.39;38.34;101416.16;16118914;19;130233;-46
2023/04/07 01:02:20;;;;;;;3.28;1.40;;;;;;;18.39;38.50;101417.03;16117111;19;130823;-45
2023/04/07 01:07:45;;;;;;;5.72;1.58;;;;;;;18.36;38.05;101420.22;16117965;19;131511;-45
2023/04/07 01:13:24;;;;;;;3.33;1.50;;;;;;;18.35;38.03;101424.06;16119146;19;129993;-45
2023/04/07 01:18:49;;;;;;;3.30;1.27;;;;;;;18.32;38.33;101419.00;16118262;19;130171;-48
2023/04/07 01:24:12;;;;;;;4.88;1.48;;;;;;;18.30;37.99;101419.22;16118011;19;130056;-46
2023/04/07 01:29:36;;;;;;;3.75;1.55;;;;;;;18.30;38.44;101422.00;16113767;19;129671;-45
2023/04/07 01:34:59;;;;;;;3.88;1.30;;;;;;;18.29;38.39;101425.00;16113597;19;130641;-46
2023/04/07 01:40:21;;;;;;;6.40;1.45;;;;;;;18.26;38.44;101426.31;16114740;19;130526;-47
2023/04/07 01:45:44;;;;;;;7.25;1.50;;;;;;;18.25;38.05;101426.53;16116753;19;130062;-47
2023/04/07 01:51:07;;;;;;;5.07;1.77;;;;;;;18.24;38.04;101428.47;16113331;19;129595;-48
2023/04/07 01:56:29;;;;;;;3.25;1.33;;;;;;;18.22;38.12;101432.53;16125650;19;130370;-50
2023/04/07 02:01:51;;;;;;;4.00;1.20;;;;;;;18.20;38.41;101432.78;16125099;19;131146;-45
2023/04/07 02:07:34;;;;;;;3.25;1.10;;;;;;;18.20;38.13;101438.31;16124791;19;129700;-49
2023/04/07 02:12:57;;;;;;;2.58;1.10;;;;;;;18.18;38.23;101436.84;16123773;19;130699;-48
2023/04/07 02:18:21;;;;;;;3.70;1.20;;;;;;;18.17;38.10;101437.94;16125796;19;129300;-51
2023/04/07 02:23:42;;;;;;;3.10;1.30;;;;;;;18.14;38.29;101445.63;16124990;19;129615;-48
2023/04/07 02:29:05;;;;;;;4.45;1.20;;;;;;;18.13;38.08;101449.47;16130048;19;129294;-44
2023/04/07 02:34:27;;;;;;;4.03;1.23;;;;;;;18.12;38.09;101450.53;16124026;19;134536;-45
2023/04/07 02:39:49;;;;;;;5.45;1.15;;;;;;;18.10;38.04;101449.91;16127852;19;130389;-45
2023/04/07 02:45:11;;;;;;;3.20;1.30;;;;;;;18.09;37.96;101448.22;16119378;19;130029;-45
2023/04/07 02:50:33;;;;;;;5.68;1.40;;;;;;;18.08;38.05;101457.63;16122847;19;129245;-45
2023/04/07 02:55:55;;;;;;;5.80;1.20;;;;;;;18.07;38.23;101461.47;16123912;19;130829;-46
2023/04/07 03:01:17;;;;;;;3.80;1.15;;;;;;;18.06;38.00;101465.31;16119408;19;129665;-47
2023/04/07 03:06:39;;;;;;;2.45;1.10;;;;;;;18.05;37.98;101474.69;16121754;19;129496;-46
2023/04/07 03:12:01;;;;;;;3.35;1.15;;;;;;;18.04;37.93;101473.00;16123603;19;129446;-44
2023/04/07 03:17:23;;;;;;;4.43;1.23;;;;;;;18.02;37.94;101469.59;16123024;19;129702;-52
2023/04/07 03:22:46;;;;;;;5.82;1.35;;;;;;;18.01;38.18;101467.91;16120754;19;130152;-45
2023/04/07 03:28:08;;;;;;;2.55;1.17;;;;;;;18.00;38.10;101466.22;16120842;19;129422;-49
2023/04/07 03:33:30;;;;;;;3.03;1.30;;;;;;;17.99;38.27;101464.53;16120685;19;129648;-47
2023/04/07 03:38:51;;;;;;;3.65;1.00;;;;;;;17.96;38.17;101465.84;16124540;19;129682;-45
2023/04/07 03:44:13;;;;;;;1.95;1.08;;;;;;;17.95;38.13;101460.53;16120527;19;129224;-49
2023/04/07 03:49:37;;;;;;;2.80;1.10;;;;;;;17.94;37.98;101461.59;16122628;19;130287;-47
2023/04/07 03:54:59;;;;;;;3.47;1.00;;;;;;;17.93;38.11;101473.75;16120905;19;131632;-48
2023/04/07 04:00:21;;;;;;;4.00;1.15;;;;;;;17.93;38.07;101476.53;16120887;19;129612;-47
2023/04/07 04:05:43;;;;;;;2.05;1.02;;;;;;;17.90;38.30;101482.50;16119579;19;129285;-44
2023/04/07 04:11:04;;;;;;;3.53;1.27;;;;;;;17.90;38.32;101482.50;16121479;19;130317;-46
2023/04/07 04:16:26;;;;;;;2.88;1.35;;;;;;;17.87;37.85;101483.81;16116789;19;129883;-47
2023/04/07 04:21:49;;;;;;;3.47;1.02;;;;;;;17.85;37.91;101481.25;16119876;19;130478;-48
2023/04/07 04:27:11;;;;;;;2.15;1.00;;;;;;;17.87;38.08;101482.97;16120166;19;129546;-46
2023/04/07 04:32:33;;;;;;;1.88;1.00;;;;;;;17.84;38.17;101487.91;16117754;19;130085;-47
2023/04/07 04:37:55;;;;;;;2.13;1.08;;;;;;;17.83;38.21;101483.44;16118084;19;130545;-46
2023/04/07 04:43:17;;;;;;;3.35;1.15;;;;;;;17.82;38.18;101480.88;16118547;19;129762;-45
2023/04/07 04:48:39;;;;;;;2.05;0.98;;;;;;;17.81;37.90;101485.56;16118604;19;130705;-43
2023/04/07 04:54:02;;;;;;;2.83;0.90;;;;;;;17.79;38.18;101490.50;16117013;19;131915;-45
2023/04/07 04:59:25;;;;;;;2.22;0.90;;;;;;;17.79;38.18;101493.25;16118003;19;130958;-48
2023/04/07 05:04:47;;;;;;;2.03;0.90;;;;;;;17.78;37.95;101501.78;16115160;19;129375;-44
2023/04/07 05:10:10;;;;;;;1.92;0.75;;;;;;;17.90;38.22;101513.81;16116494;19;129661;-46
2023/04/07 05:15:32;;;;;;;1.52;0.77;;;;;;;18.29;37.53;101511.69;16112661;19;130675;-47
2023/04/07 05:20:54;;;;;;;1.88;0.68;;;;;;;18.72;37.05;101509.94;16112171;19;129489;-45
2023/04/07 05:26:16;;;;;;;1.98;0.98;;;;;;;19.03;36.68;101519.16;16115093;19;129784;-47
2023/04/07 05:31:39;;;;;;;3.05;1.08;;;;;;;19.20;36.55;101513.78;16111843;19;129094;-44
2023/04/07 05:37:02;;;;;;;2.88;1.00;;;;;;;19.28;36.41;101517.31;16115631;19;134715;-45
2023/04/07 05:42:24;;;;;;;6.65;0.98;;;;;;;19.25;36.18;101520.59;16111714;19;129232;-47
2023/04/07 05:47:48;;;;;;;5.05;0.98;;;;;;;19.18;36.00;101538.13;16111923;19;131182;-43
2023/04/07 05:53:10;;;;;;;2.57;1.07;;;;;;;19.13;36.13;101539.94;16115087;19;130432;-44
2023/04/07 05:58:32;;;;;;;2.65;0.80;;;;;;;19.06;36.50;101540.00;16112275;19;130242;-45
2023/04/07 06:03:54;;;;;;;4.30;1.00;;;;;;;18.99;36.54;101542.88;16109970;19;130510;-44
2023/04/07 06:09:17;;;;;;;3.55;1.00;;;;;;;18.91;36.50;101548.75;16112471;19;130310;-45
2023/04/07 06:14:39;;;;;;;4.18;0.90;;;;;;;18.83;36.65;101549.91;16112234;19;129723;-45
2023/04/07 06:20:01;;;;;;;4.53;1.02;;;;;;;18.81;36.44;101554.00;16112832;19;130134;-46
2023/04/07 06:25:23;;;;;;;3.83;0.88;;;;;;;18.78;36.48;101555.28;16112400;19;129831;-46
2023/04/07 06:30:45;;;;;;;3.22;0.80;;;;;;;18.75;36.80;101559.38;16112465;19;129776;-45
2023/04/07 06:36:07;;;;;;;1.80;0.85;;;;;;;18.70;36.39;101566.69;16110652;19;130414;-44
2023/04/07 06:41:30;;;;;;;4.10;0.90;;;;;;;18.67;36.69;101569.94;16120102;19;131386;-43
2023/04/07 06:46:54;;;;;;;2.03;0.80;;;;;;;18.71;36.86;101566.47;16128742;19;129465;-46
2023/04/07 06:52:16;;;;;;;4.25;1.08;;;;;;;18.77;36.28;101575.78;16123744;19;129883;-46
2023/04/07 06:57:37;;;;;;;3.03;0.90;;;;;;;18.87;36.44;101575.25;16123380;19;132284;-43
2023/04/07 07:02:59;;;;;;;3.58;1.10;;;;;;;18.94;36.18;101589.88;16120940;19;129422;-46
2023/04/07 07:08:22;;;;;;;6.57;1.30;;;;;;;18.90;36.05;101600.56;16114722;19;130746;-43
2023/04/07 07:13:44;;;;;;;2.97;1.23;;;;;;;18.88;36.09;101599.13;16122996;19;130538;-43
2023/04/07 07:19:07;;;;;;;8.43;1.30;;;;;;;18.88;36.07;101599.97;16121879;19;131193;-44
2023/04/07 07:24:29;;;;;;;4.47;1.00;;;;;;;18.82;36.00;101602.81;16117898;19;129613;-44
2023/04/07 07:29:51;;;;;;;4.93;1.30;;;;;;;18.75;36.00;101606.50;16121458;19;130871;-48
2023/04/07 07:35:14;;;;;;;5.80;1.38;;;;;;;18.76;36.06;101619.28;16118982;19;132178;-44
2023/04/07 07:40:36;;;;;;;6.32;1.45;;;;;;;18.70;36.17;101620.22;16121537;19;129659;-49
2023/04/07 07:45:58;;;;;;;9.30;1.90;;;;;;;18.66;36.36;101634.75;16119936;19;130587;-44
2023/04/07 07:51:20;;;;;;;7.63;1.90;;;;;;;18.63;36.27;101632.47;16120962;19;129958;-46
2023/04/07 07:56:42;;;;;;;8.80;1.98;;;;;;;18.61;36.61;101643.75;16123207;19;129319;-45
2023/04/07 08:02:05;;;;;;;8.73;1.60;;;;;;;18.60;36.54;101650.38;16122332;19;131773;-46
2023/04/07 08:07:27;;;;;;;7.90;1.40;;;;;;;18.58;36.77;101652.56;16120535;19;129455;-46
2023/04/07 08:12:50;;;;;;;5.70;1.30;;;;;;;18.60;36.58;101667.88;16119486;19;129511;-44
2023/04/07 08:18:11;;;;;;;4.75;1.40;;;;;;;18.60;36.54;101667.88;16123998;19;129731;-47
2023/04/07 08:23:34;;;;;;;7.18;1.48;;;;;;;18.61;36.56;101674.25;16118762;19;131365;-43
2023/04/07 08:28:57;;;;;;;4.28;1.20;;;;;;;18.64;36.47;101675.72;16121040;19;129442;-46
2023/04/07 08:34:20;;;;;;;7.78;1.52;;;;;;;18.66;36.32;101673.56;16120782;19;129502;-48
2023/04/07 08:39:41;;;;;;;9.02;1.30;;;;;;;18.66;36.24;101677.19;16120276;19;129757;-46
2023/04/07 08:45:05;;;;;;;4.20;1.20;;;;;;;18.68;36.19;101680.59;16119774;19;130219;-44
2023/04/07 08:50:28;;;;;;;3.58;1.13;;;;;;;18.71;35.93;101682.88;16121290;19;129874;-46
2023/04/07 08:55:50;;;;;;;3.40;1.02;;;;;;;18.75;35.96;101686.91;16118792;19;130793;-46
2023/04/07 09:01:13;;;;;;;3.13;1.00;;;;;;;18.76;36.21;101696.91;16119608;19;129589;-45
2023/04/07 09:06:35;;;;;;;5.07;1.45;;;;;;;18.75;35.93;101692.44;16115489;19;130277;-44
2023/04/07 09:11:57;;;;;;;2.97;1.10;;;;;;;18.82;35.76;101697.09;16118462;19;129892;-44
2023/04/07 09:17:20;;;;;;;3.33;0.95;;;;;;;18.80;35.80;101696.47;16114698;19;129594;-45
2023/04/07 09:22:46;;;;;;;3.35;1.08;;;;;;;18.76;35.78;101696.91;16118665;19;131555;-44
2023/04/07 09:28:08;;;;;;;3.90;0.90;;;;;;;18.73;36.05;101697.34;16117119;19;130174;-46
2023/04/07 09:33:30;;;;;;;5.10;1.40;;;;;;;18.72;35.65;101694.81;16116332;19;129671;-46
2023/04/07 09:38:52;;;;;;;4.28;1.02;;;;;;;18.72;35.69;101700.38;16114815;19;129498;-44
2023/04/07 09:44:14;;;;;;;3.85;1.00;;;;;;;18.70;35.74;101689.53;16111576;19;129451;-43
2023/04/07 09:49:52;;;;;;;4.40;1.23;;;;;;;18.73;35.85;101697.34;16109719;19;130322;-46
2023/04/07 09:55:15;;;;;;;3.45;0.80;;;;;;;18.71;35.98;101693.97;16111339;19;130529;-43
2023/04/07 10:00:37;;;;;;;4.93;1.25;;;;;;;18.71;35.99;101699.50;16110702;19;130142;-46
2023/04/07 10:06:00;;;;;;;6.85;1.10;;;;;;;18.70;35.86;101697.84;16113626;19;129500;-44
2023/04/07 10:11:22;;;;;;;2.78;1.00;;;;;;;18.67;35.90;101703.81;16113237;19;130207;-44
2023/04/07 10:16:46;;;;;;;5.72;1.23;;;;;;;18.65;35.88;101694.03;16121128;19;129376;-44
2023/04/07 10:22:12;;;;;;;4.25;1.10;;;;;;;18.65;35.76;101700.44;16128847;19;130302;-43
2023/04/07 10:27:57;;;;;;;3.75;0.82;;;;;;;18.72;35.46;101701.19;16128293;19;130347;-44
2023/04/07 10:33:57;;;;;;;3.17;1.00;;;;;;;18.70;35.56;101697.84;16120746;19;131705;-44
2023/04/07 10:39:19;;;;;;;3.55;1.40;;;;;;;18.65;35.41;101703.19;16124009;19;130618;-44
2023/04/07 10:44:41;;;;;;;5.53;1.25;;;;;;;18.61;35.38;101705.59;16125902;19;129975;-44
2023/04/07 10:50:21;;;;;;;7.35;1.50;;;;;;;18.60;35.55;101701.13;16129344;19;131149;-45
2023/04/07 10:55:44;;;;;;;4.47;1.50;;;;;;;18.60;35.43;101705.78;16124096;19;131547;-44
2023/04/07 11:01:06;;;;;;;8.32;1.60;;;;;;;18.59;35.20;101717.94;16128328;19;130749;-44
2023/04/07 11:06:28;;;;;;;5.30;1.50;;;;;;;18.57;35.55;101728.44;16125361;19;129529;-45
2023/04/07 11:11:51;;;;;;;5.28;1.65;;;;;;;18.54;35.10;101734.44;16127025;19;129634;-45
2023/04/07 11:17:18;;;;;;;3.92;1.15;;;;;;;18.57;35.00;101728.44;16126655;19;130079;-45
2023/04/07 11:22:40;;;;;;;4.32;1.42;;;;;;;18.62;35.14;101739.69;16126048;19;129557;-44
2023/04/07 11:28:03;;;;;;;4.20;1.38;;;;;;;18.70;35.15;101736.66;16124693;19;131027;-47
2023/04/07 11:33:27;;;;;;;7.57;1.52;;;;;;;18.80;34.53;101743.59;16122711;19;129543;-44
2023/04/07 11:38:49;;;;;;;5.10;1.00;;;;;;;;;;16124215;19;129717;-49
2023/04/07 11:44:11;;;;;;;5.72;1.30;;;;;;;19.03;34.64;101762.31;16125772;19;129834;-44
2023/04/07 11:49:33;;;;;;;5.45;1.23;;;;;;;19.10;34.13;101753.94;16123213;19;130925;-43
2023/04/07 11:54:58;;;;;;;4.68;1.20;;;;;;;19.13;34.12;101756.25;16123429;19;131441;-43
2023/04/07 12:00:20;;;;;;;3.58;1.05;;;;;;;19.15;34.11;101759.66;16124464;19;132292;-45
2023/04/07 12:05:43;;;;;;;3.58;1.15;;;;;;;19.15;33.88;101766.03;16122195;19;134257;-46
2023/04/07 12:11:06;;;;;;;3.17;0.90;;;;;;;19.15;34.09;101765.22;16123211;19;129610;-47
2023/04/07 12:16:28;;;;;;;4.40;1.60;;;;;;;19.14;34.22;101763.50;16122000;19;130048;-48
2023/04/07 12:21:51;;;;;;;4.25;0.88;;;;;;;19.08;34.10;101771.66;16122264;19;129343;-46
2023/04/07 12:27:12;;;;;;;3.45;1.10;;;;;;;19.04;34.15;101784.31;16124041;19;131065;-44
2023/04/07 12:32:34;;;;;;;4.30;1.05;;;;;;;18.98;33.77;101784.38;16120775;19;130017;-48
2023/04/07 12:37:56;;;;;;;2.45;0.82;;;;;;;18.94;33.77;101781.22;16117293;19;129770;-47
2023/04/07 12:43:18;;;;;;;2.63;1.02;;;;;;;18.91;34.19;101781.66;16121619;19;130466;-46
2023/04/07 12:48:40;;;;;;;3.47;1.05;;;;;;;18.90;33.91;101777.19;16121177;19;130080;-51
2023/04/07 12:54:03;;;;;;;2.47;1.02;;;;;;;18.91;33.98;101784.44;16121586;19;131463;-50
2023/04/07 12:59:25;;;;;;;4.13;0.90;;;;;;;18.93;33.91;101785.06;16120381;19;129542;-52
2023/04/07 13:04:46;;;;;;;3.47;0.80;;;;;;;;;;16118911;19;129754;-53
2023/04/07 13:10:09;;;;;;;4.40;0.85;;;;;;;18.86;33.80;101798.97;16120236;19;129766;-51
2023/04/07 13:15:31;;;;;;;3.67;0.90;;;;;;;18.84;33.74;101806.66;16120086;19;131055;-48
2023/04/07 13:20:53;;;;;;;2.78;0.60;;;;;;;18.81;33.98;101812.66;16117039;19;129207;-49
2023/04/07 13:26:35;;;;;;;2.22;0.68;;;;;;;18.79;33.98;101816.72;16118654;19;130986;-51
2023/04/07 13:32:11;;;;;;;4.47;0.90;;;;;;;18.79;33.71;101819.50;16118142;19;129510;-54
2023/04/07 13:37:33;;;;;;;1.88;0.65;;;;;;;18.76;33.86;101818.88;16118170;19;129462;-45
2023/04/07 13:42:56;;;;;;;2.95;0.68;;;;;;;18.76;33.83;101824.41;16117421;19;129275;-45
2023/04/07 13:48:18;;;;;;;2.15;0.70;;;;;;;18.76;33.71;101818.88;16117644;19;132088;-44
2023/04/07 13:53:40;;;;;;;1.83;0.73;;;;;;;18.77;33.99;101809.50;16132208;19;129478;-43
2023/04/07 13:59:02;;;;;;;2.60;1.00;;;;;;;18.80;33.99;101810.13;16132730;19;133844;-44
2023/04/07 14:04:24;;;;;;;4.40;0.95;;;;;;;18.81;33.76;101820.13;16132441;19;129952;-45
2023/04/07 14:09:47;;;;;;;3.70;0.80;;;;;;;18.77;33.97;101817.81;16130859;19;129691;-46
2023/04/07 14:15:09;;;;;;;4.55;0.98;;;;;;;18.74;33.68;101821.03;16130681;19;129239;-46
2023/04/07 14:20:32;;;;;;;4.57;0.80;;;;;;;18.72;34.08;101817.63;16130620;19;130500;-45
2023/04/07 14:25:54;;;;;;;3.42;0.77;;;;;;;18.72;34.08;101834.25;16129838;19;129433;-47
2023/04/07 14:31:16;;;;;;;2.17;0.60;;;;;;;18.72;33.89;101823.16;16130653;19;129048;-45
2023/04/07 14:36:38;;;;;;;2.22;0.80;;;;;;;18.72;33.83;101834.25;16130693;19;129667;-43
2023/04/07 14:42:00;;;;;;;2.53;0.50;;;;;;;18.72;33.92;101827.88;16128449;19;129439;-44
2023/04/07 14:47:22;;;;;;;2.40;0.90;;;;;;;18.72;33.96;101834.25;16130690;19;132110;-45
2023/04/07 14:52:44;;;;;;;1.75;0.60;;;;;;;18.72;33.65;101830.66;16127122;19;130277;-47
2023/04/07 14:58:07;;;;;;;3.22;0.90;;;;;;;18.72;33.53;101834.25;16123965;19;132324;-45
2023/04/07 15:03:29;;;;;;;1.67;0.52;;;;;;;18.72;33.80;101842.56;16121106;19;129596;-47
2023/04/07 15:08:51;;;;;;;3.00;0.70;;;;;;;18.71;33.64;101842.81;16127047;19;129862;-43
2023/04/07 15:14:13;;;;;;;3.15;0.90;;;;;;;18.69;33.63;101856.91;16125227;19;130731;-44
2023/04/07 15:19:35;;;;;;;1.45;0.50;;;;;;;18.69;33.75;101845.81;16125464;19;130357;-46
2023/04/07 15:24:58;;;;;;;2.53;0.60;;;;;;;18.68;33.86;101855.19;16127942;19;132582;-47
2023/04/07 15:30:20;;;;;;;2.85;0.60;;;;;;;18.69;34.02;101856.91;16124124;19;129631;-44
2023/04/07 15:35:42;;;;;;;2.20;0.70;;;;;;;18.70;33.66;101857.72;16125960;19;130157;-47
2023/04/07 15:41:05;;;;;;;2.28;0.80;;;;;;;18.70;33.74;101864.16;16125703;19;129871;-44
2023/04/07 15:46:27;;;;;;;2.95;0.90;;;;;;;18.70;33.91;101858.59;16128369;19;132860;-49
2023/04/07 15:51:50;;;;;;;1.30;0.55;;;;;;;18.71;33.72;101864.97;16123490;19;130216;-45
2023/04/07 15:57:12;;;;;;;1.42;0.65;;;;;;;18.71;34.03;101871.34;16116062;19;131149;-43
2023/04/07 16:02:34;;;;;;;3.13;0.80;;;;;;;18.70;33.85;101875.22;16115844;19;129618;-45
2023/04/07 16:07:57;;;;;;;2.47;0.60;;;;;;;18.68;34.09;101870.97;16121025;19;131718;-48
2023/04/07 16:13:19;;;;;;;3.17;0.60;;;;;;;18.66;34.11;101873.97;16117024;19;131834;-44
2023/04/07 16:18:41;;;;;;;5.15;0.63;;;;;;;18.66;34.10;101873.97;16114234;19;130113;-44
2023/04/07 16:24:04;;;;;;;7.15;0.75;;;;;;;18.64;34.13;101878.88;16122600;19;129722;-50
2023/04/07 16:29:26;;;;;;;2.03;0.50;;;;;;;18.66;33.69;101884.19;16123936;19;129445;-46
2023/04/07 16:34:48;;;;;;;3.25;0.73;;;;;;;18.65;33.90;101888.91;16117731;19;129645;-45
2023/04/07 16:40:10;;;;;;;3.90;0.80;;;;;;;18.76;33.80;101895.66;16118857;19;131289;-44
2023/04/07 16:45:32;;;;;;;4.75;0.88;;;;;;;18.94;33.66;101897.66;16118011;19;129920;-44
2023/04/07 16:50:54;;;;;;;4.10;0.90;;;;;;;19.17;33.65;101896.19;16118366;19;129375;-47
2023/04/07 16:56:16;;;;;;;3.13;0.90;;;;;;;19.40;33.24;101901.13;16120491;19;129467;-46
2023/04/07 17:01:38;;;;;;;4.10;0.85;;;;;;;19.53;33.26;101909.34;16118243;19;130970;-46
2023/04/07 17:07:03;;;;;;;3.17;0.95;;;;;;;19.59;33.28;101917.84;16119282;19;129300;-44
2023/04/07 17:12:25;;;;;;;6.38;0.63;;;;;;;19.57;32.99;101915.25;16119628;19;130004;-47
2023/04/07 17:17:47;;;;;;;3.17;0.73;;;;;;;19.56;32.86;101927.47;16120758;19;130532;-48
2023/04/07 17:23:09;;;;;;;2.15;0.80;;;;;;;19.56;32.94;101933.03;16117705;19;130743;-46
2023/04/07 17:28:31;;;;;;;2.10;0.68;;;;;;;19.55;33.19;101928.56;16121171;19;130240;-46
2023/04/07 17:33:53;;;;;;;1.15;0.50;;;;;;;19.61;33.22;101935.13;16117177;19;129534;-47
2023/04/07 17:39:15;;;;;;;2.50;0.70;;;;;;;19.69;33.28;101949.53;16116687;19;129313;-48
2023/04/07 17:44:38;;;;;;;3.30;1.00;;;;;;;19.79;32.94;101959.28;16116398;19;130841;-46
2023/04/07 17:50:00;;;;;;;4.18;0.80;;;;;;;19.86;33.36;101973.09;16116931;19;129254;-45
2023/04/07 17:55:22;;;;;;;4.63;0.93;;;;;;;19.90;32.99;101977.97;16114789;19;130915;-46
2023/04/07 18:00:44;;;;;;;5.13;0.70;;;;;;;19.94;32.89;101981.97;16117220;19;129914;-45
2023/04/07 18:06:09;;;;;;;5.00;0.60;;;;;;;19.96;32.86;101990.91;16111075;19;130864;-46
2023/04/07 18:11:31;;;;;;;2.88;0.75;;;;;;;19.94;33.17;101993.06;16106283;19;129916;-45
2023/04/07 18:16:54;;;;;;;6.25;0.88;;;;;;;19.96;33.36;102004.81;16109510;19;130069;-45
2023/04/07 18:22:16;;;;;;;3.80;0.85;;;;;;;19.99;32.91;102009.94;16107086;19;130055;-49
2023/04/07 18:27:38;;;;;;;8.10;1.67;;;;;;;19.93;33.50;102010.84;16106761;19;130966;-46
2023/04/07 18:33:00;;;;;;;21.63;2.25;;;;;;;19.86;33.84;102010.03;16104072;19;129913;-43
2023/04/07 18:38:22;;;;;;;25.60;3.03;;;;;;;19.87;33.75;102020.06;16118237;19;134703;-43
2023/04/07 18:43:47;;;;;;;25.30;2.40;;;;;;;19.94;34.00;102018.06;16122985;19;129535;-45
2023/04/07 18:49:09;;;;;;;22.35;3.45;;;;;;;20.14;34.42;102029.00;16126901;19;129677;-46
2023/04/07 18:54:31;;;;;;;18.48;2.50;;;;;;;20.49;33.77;102032.28;16121880;19;129650;-44
2023/04/07 18:59:53;;;;;;;19.67;2.20;;;;;;;20.92;33.51;102045.22;16119784;19;130886;-49
2023/04/07 19:05:15;;;;;;;14.18;2.05;;;;;;;21.35;33.51;102051.69;16118872;19;130529;-43
2023/04/07 19:10:42;;;;;;;15.57;2.35;;;;;;;21.57;33.27;102053.94;16125005;19;130279;-47
2023/04/07 19:16:06;;;;;;;12.05;1.80;;;;;;;21.68;33.04;102058.69;16124010;19;130642;-45
2023/04/07 19:21:28;;;;;;;13.25;2.08;;;;;;;21.72;33.24;102059.91;16123583;19;129326;-50
2023/04/07 19:26:51;;;;;;;13.95;2.22;;;;;;;21.74;33.17;102070.78;16125788;19;131345;-46
2023/04/07 19:32:13;;;;;;;17.15;2.00;;;;;;;21.70;32.99;102056.50;16124195;19;131980;-43
2023/04/07 19:37:36;;;;;;;11.77;1.65;;;;;;;21.62;33.20;102062.44;16122939;19;129980;-46
2023/04/07 19:42:59;;;;;;;12.93;1.92;;;;;;;21.47;33.42;102063.69;16122329;19;129836;-45
2023/04/07 19:48:21;;;;;;;14.50;2.05;;;;;;;21.31;33.03;102064.38;16113787;19;130786;-45
2023/04/07 19:53:43;;;;;;;10.57;2.22;;;;;;;21.15;33.72;102071.44;16124576;19;129456;-48
2023/04/07 19:59:07;;;;;;;8.18;2.10;;;;;;;21.03;33.70;102069.47;16120415;19;131061;-46
2023/04/07 20:04:28;;;;;;;9.10;1.70;;;;;;;21.01;33.47;102077.19;16119073;19;129990;-44
2023/04/07 20:09:52;;;;;;;8.00;1.88;;;;;;;20.98;33.87;102077.69;16119919;19;130514;-45
2023/04/07 20:15:15;;;;;;;8.63;1.50;;;;;;;20.93;34.05;102073.88;16117842;19;131382;-45
2023/04/07 20:20:37;;;;;;;6.10;1.73;;;;;;;20.93;34.05;102069.19;16120112;19;130127;-46
2023/04/07 20:26:00;;;;;;;5.68;1.30;;;;;;;20.96;33.96;102084.56;16117201;19;131056;-46
2023/04/07 20:31:22;;;;;;;10.70;1.73;;;;;;;20.95;33.89;102092.06;16115050;19;131226;-48
2023/04/07 20:36:45;;;;;;;7.32;1.20;;;;;;;20.94;33.91;102097.84;16121007;19;131128;-50
2023/04/07 20:42:07;;;;;;;8.68;1.80;;;;;;;20.89;34.31;102113.31;16119638;19;130300;-47
2023/04/07 20:47:30;;;;;;;6.53;1.40;;;;;;;20.82;34.49;102101.41;16115393;19;129950;-45
2023/04/07 20:52:52;;;;;;;23.10;2.17;;;;;;;20.76;34.93;102099.56;16118253;19;131402;-44
2023/04/07 20:58:16;;;;;;;14.27;2.00;;;;;;;20.71;35.33;102105.81;16115038;19;130093;-44
2023/04/07 21:03:38;;;;;;;13.45;1.92;;;;;;;20.67;35.62;102104.56;16116172;19;130621;-43
2023/04/07 21:09:01;;;;;;;9.00;1.63;;;;;;;20.58;35.70;102101.22;16116408;19;130509;-46
2023/04/07 21:14:23;;;;;;;16.35;1.63;;;;;;;20.48;35.41;102109.25;16115298;19;132005;-48
2023/04/07 21:19:45;;;;;;;10.35;2.13;;;;;;;20.39;35.76;102124.53;16116860;19;131057;-49
2023/04/07 21:25:07;;;;;;;13.57;1.67;;;;;;;20.31;35.75;102120.13;16113994;19;129337;-48
2023/04/07 21:30:30;;;;;;;9.18;1.42;;;;;;;20.21;35.65;102115.06;16115840;19;129957;-46
2023/04/07 21:35:53;;;;;;;4.68;1.23;;;;;;;20.14;36.17;102122.63;16116443;19;129499;-43
2023/04/07 21:41:15;;;;;;;5.88;1.58;;;;;;;20.06;36.24;102128.47;16113459;19;130512;-45
2023/04/07 21:46:37;;;;;;;11.27;1.50;;;;;;;19.97;36.14;102128.72;16113189;19;129569;-49
2023/04/07 21:51:59;;;;;;;6.50;1.23;;;;;;;19.89;36.43;102129.00;16113316;19;129598;-46
2023/04/07 21:57:22;;;;;;;9.82;1.20;;;;;;;19.81;36.30;102123.75;16110026;19;130022;-46
2023/04/07 22:02:44;;;;;;;6.82;1.35;;;;;;;19.75;36.01;102130.16;16112250;19;130864;-48
2023/04/07 22:08:06;;;;;;;4.35;1.20;;;;;;;19.67;36.33;102140.50;16110524;19;129981;-45
2023/04/07 22:13:28;;;;;;;6.07;1.15;;;;;;;19.60;36.43;102128.56;16124983;19;131710;-44
2023/04/07 22:18:50;;;;;;;4.80;0.77;;;;;;;19.54;36.65;102126.69;16124572;19;129882;-47
2023/04/07 22:24:12;;;;;;;4.47;0.80;;;;;;;19.49;36.27;102138.47;16126321;19;130290;-47
2023/04/07 22:29:34;;;;;;;6.28;1.33;;;;;;;19.45;36.50;102136.34;16123931;19;131480;-47
2023/04/07 22:34:56;;;;;;;3.55;1.00;;;;;;;19.40;36.39;102133.41;16122147;19;130559;-47
2023/04/07 22:40:18;;;;;;;8.68;1.00;;;;;;;19.34;36.41;102135.13;16126157;19;131074;-45
2023/04/07 22:45:40;;;;;;;6.90;1.23;;;;;;;19.30;36.84;102134.72;16125369;19;131417;-44
2023/04/07 22:51:02;;;;;;;4.03;1.05;;;;;;;19.26;36.86;102141.78;16124082;19;134847;-48
2023/04/07 22:56:25;;;;;;;3.03;0.80;;;;;;;19.21;36.75;102149.91;16121402;19;129975;-45
2023/04/07 23:01:47;;;;;;;2.33;0.75;;;;;;;19.18;36.63;102150.34;16122008;19;130484;-45
2023/04/07 23:07:09;;;;;;;2.45;0.90;;;;;;;19.15;36.47;102145.22;16122960;19;130657;-44
2023/04/07 23:12:31;;;;;;;1.48;0.63;;;;;;;19.13;36.65;102153.78;16120689;19;131569;-44
2023/04/07 23:17:53;;;;;;;4.07;0.80;;;;;;;19.10;36.86;102150.56;16124478;19;131005;-45
2023/04/07 23:23:15;;;;;;;2.17;0.70;;;;;;;19.07;36.60;102152.72;16120960;19;129736;-44
2023/04/07 23:28:37;;;;;;;3.08;0.80;;;;;;;19.04;36.50;102157.84;16122032;19;132011;-45
2023/04/07 23:33:59;;;;;;;3.47;0.70;;;;;;;19.01;36.80;102156.38;16123623;19;129122;-44
2023/04/07 23:39:21;;;;;;;4.35;0.80;;;;;;;18.99;36.70;102158.50;16119677;19;130374;-46
2023/04/07 23:44:43;;;;;;;4.88;0.70;;;;;;;18.96;36.88;102167.25;16122099;19;130630;-45
2023/04/07 23:50:06;;;;;;;2.95;0.70;;;;;;;18.91;36.99;102169.84;16122152;19;130280;-47
2023/04/07 23:55:28;;;;;;;1.52;0.45;;;;;;;18.90;36.86;102162.59;16117458;19;129569;-47
